sensor_id;sensor_type;location;lat;lon;timestamp;P1;durP1;ratioP1;P2;durP2;ratioP2
74421;SDS011;62856;51.446;8.360;2022-09-17T00:00:05;9.85;;;3.50;;
74421;SDS011;62856;51.446;8.360;2022-09-17T00:02:33;10.30;;;3.28;;
74421;SDS011;62856;51.446;8.360;2022-09-17T00:04:59;8.25;;;2.95;;
74421;SDS011;62856;51.446;8.360;2022-09-17T00:07:24;13.25;;;3.42;;
74421;SDS011;62856;51.446;8.360;2022-09-17T00:09:50;11.23;;;3.50;;
74421;SDS011;62856;51.446;8.360;2022-09-17T00:12:15;10.02;;;3.47;;
74421;SDS011;62856;51.446;8.360;2022-09-17T00:14:40;10.68;;;3.25;;
74421;SDS011;62856;51.446;8.360;2022-09-17T00:17:06;10.50;;;3.58;;
74421;SDS011;62856;51.446;8.360;2022-09-17T00:19:31;11.35;;;3.38;;
74421;SDS011;62856;51.446;8.360;2022-09-17T00:21:56;15.43;;;4.93;;
74421;SDS011;62856;51.446;8.360;2022-09-17T00:24:22;12.15;;;3.85;;
74421;SDS011;62856;51.446;8.360;2022-09-17T00:26:47;13.52;;;4.00;;
74421;SDS011;62856;51.446;8.360;2022-09-17T00:29:13;12.68;;;4.20;;
74421;SDS011;62856;51.446;8.360;2022-09-17T00:31:42;14.75;;;4.97;;
74421;SDS011;62856;51.446;8.360;2022-09-17T00:34:13;16.13;;;5.18;;
74421;SDS011;62856;51.446;8.360;2022-09-17T00:36:39;12.85;;;4.47;;
74421;SDS011;62856;51.446;8.360;2022-09-17T00:39:05;11.23;;;3.67;;
74421;SDS011;62856;51.446;8.360;2022-09-17T00:41:36;15.90;;;4.70;;
74421;SDS011;62856;51.446;8.360;2022-09-17T00:44:37;12.18;;;5.18;;
74421;SDS011;62856;51.446;8.360;2022-09-17T00:47:41;15.30;;;4.60;;
74421;SDS011;62856;51.446;8.360;2022-09-17T00:53:07;17.70;;;5.22;;
74421;SDS011;62856;51.446;8.360;2022-09-17T00:55:39;14.60;;;5.35;;
74421;SDS011;62856;51.446;8.360;2022-09-17T00:58:07;16.85;;;5.38;;
74421;SDS011;62856;51.446;8.360;2022-09-17T01:00:36;20.58;;;6.30;;
74421;SDS011;62856;51.446;8.360;2022-09-17T01:03:01;17.30;;;5.72;;
74421;SDS011;62856;51.446;8.360;2022-09-17T01:16:41;16.35;;;3.97;;
74421;SDS011;62856;51.446;8.360;2022-09-17T01:22:07;26.08;;;4.47;;
74421;SDS011;62856;51.446;8.360;2022-09-17T01:24:59;19.60;;;6.20;;
74421;SDS011;62856;51.446;8.360;2022-09-17T01:31:02;17.13;;;4.25;;
74421;SDS011;62856;51.446;8.360;2022-09-17T01:41:39;17.00;;;4.88;;
74421;SDS011;62856;51.446;8.360;2022-09-17T01:46:40;17.13;;;5.68;;
74421;SDS011;62856;51.446;8.360;2022-09-17T01:49:12;18.27;;;5.13;;
74421;SDS011;62856;51.446;8.360;2022-09-17T01:51:40;15.60;;;4.53;;
74421;SDS011;62856;51.446;8.360;2022-09-17T01:54:16;15.40;;;4.65;;
74421;SDS011;62856;51.446;8.360;2022-09-17T01:57:03;16.23;;;4.20;;
74421;SDS011;62856;51.446;8.360;2022-09-17T02:02:36;21.73;;;5.60;;
74421;SDS011;62856;51.446;8.360;2022-09-17T02:11:17;27.55;;;8.35;;
74421;SDS011;62856;51.446;8.360;2022-09-17T02:16:55;20.65;;;7.22;;
74421;SDS011;62856;51.446;8.360;2022-09-17T02:19:28;19.65;;;8.35;;
74421;SDS011;62856;51.446;8.360;2022-09-17T02:22:05;20.33;;;7.53;;
74421;SDS011;62856;51.446;8.360;2022-09-17T02:24:49;24.52;;;8.73;;
74421;SDS011;62856;51.446;8.360;2022-09-17T02:30:15;24.65;;;8.15;;
74421;SDS011;62856;51.446;8.360;2022-09-17T02:32:41;22.60;;;9.15;;
74421;SDS011;62856;51.446;8.360;2022-09-17T02:35:07;24.33;;;10.40;;
74421;SDS011;62856;51.446;8.360;2022-09-17T02:37:45;28.92;;;11.25;;
74421;SDS011;62856;51.446;8.360;2022-09-17T02:40:11;25.27;;;9.45;;
74421;SDS011;62856;51.446;8.360;2022-09-17T02:45:34;24.40;;;8.30;;
74421;SDS011;62856;51.446;8.360;2022-09-17T02:50:38;28.00;;;9.57;;
74421;SDS011;62856;51.446;8.360;2022-09-17T02:57:04;22.95;;;7.82;;
74421;SDS011;62856;51.446;8.360;2022-09-17T03:02:08;24.50;;;7.13;;
74421;SDS011;62856;51.446;8.360;2022-09-17T03:04:38;22.75;;;8.45;;
74421;SDS011;62856;51.446;8.360;2022-09-17T03:07:13;27.65;;;8.90;;
74421;SDS011;62856;51.446;8.360;2022-09-17T03:09:38;24.35;;;9.57;;
74421;SDS011;62856;51.446;8.360;2022-09-17T03:12:09;20.38;;;8.00;;
74421;SDS011;62856;51.446;8.360;2022-09-17T03:14:42;23.60;;;8.77;;
74421;SDS011;62856;51.446;8.360;2022-09-17T03:17:14;20.20;;;7.18;;
74421;SDS011;62856;51.446;8.360;2022-09-17T03:19:42;19.88;;;6.22;;
74421;SDS011;62856;51.446;8.360;2022-09-17T03:22:08;23.15;;;7.47;;
74421;SDS011;62856;51.446;8.360;2022-09-17T03:24:33;24.40;;;7.47;;
74421;SDS011;62856;51.446;8.360;2022-09-17T03:26:59;20.63;;;7.10;;
74421;SDS011;62856;51.446;8.360;2022-09-17T03:29:24;16.48;;;7.10;;
74421;SDS011;62856;51.446;8.360;2022-09-17T03:31:55;29.10;;;9.70;;
74421;SDS011;62856;51.446;8.360;2022-09-17T03:34:21;27.77;;;10.25;;
74421;SDS011;62856;51.446;8.360;2022-09-17T03:36:46;28.70;;;11.52;;
74421;SDS011;62856;51.446;8.360;2022-09-17T03:39:11;28.40;;;8.68;;
74421;SDS011;62856;51.446;8.360;2022-09-17T03:41:37;30.27;;;8.07;;
74421;SDS011;62856;51.446;8.360;2022-09-17T03:44:06;23.50;;;7.80;;
74421;SDS011;62856;51.446;8.360;2022-09-17T03:46:35;24.45;;;8.35;;
74421;SDS011;62856;51.446;8.360;2022-09-17T03:49:00;24.13;;;8.52;;
74421;SDS011;62856;51.446;8.360;2022-09-17T03:51:26;26.95;;;8.45;;
74421;SDS011;62856;51.446;8.360;2022-09-17T03:53:51;28.42;;;9.30;;
74421;SDS011;62856;51.446;8.360;2022-09-17T03:56:17;21.33;;;8.18;;
74421;SDS011;62856;51.446;8.360;2022-09-17T03:58:42;20.27;;;7.40;;
74421;SDS011;62856;51.446;8.360;2022-09-17T04:01:07;20.23;;;7.03;;
74421;SDS011;62856;51.446;8.360;2022-09-17T04:03:33;30.48;;;10.15;;
74421;SDS011;62856;51.446;8.360;2022-09-17T04:05:58;28.35;;;11.02;;
74421;SDS011;62856;51.446;8.360;2022-09-17T04:08:23;26.40;;;8.82;;
74421;SDS011;62856;51.446;8.360;2022-09-17T04:10:52;25.92;;;9.48;;
74421;SDS011;62856;51.446;8.360;2022-09-17T04:13:18;29.88;;;8.60;;
74421;SDS011;62856;51.446;8.360;2022-09-17T04:15:45;22.17;;;8.05;;
74421;SDS011;62856;51.446;8.360;2022-09-17T04:18:11;22.55;;;7.70;;
74421;SDS011;62856;51.446;8.360;2022-09-17T04:20:40;21.58;;;8.55;;
74421;SDS011;62856;51.446;8.360;2022-09-17T04:23:09;24.67;;;8.45;;
74421;SDS011;62856;51.446;8.360;2022-09-17T04:25:35;23.73;;;8.20;;
74421;SDS011;62856;51.446;8.360;2022-09-17T04:28:01;24.45;;;8.68;;
74421;SDS011;62856;51.446;8.360;2022-09-17T04:30:26;27.25;;;7.43;;
74421;SDS011;62856;51.446;8.360;2022-09-17T04:32:57;25.53;;;8.50;;
74421;SDS011;62856;51.446;8.360;2022-09-17T04:35:23;23.67;;;8.35;;
74421;SDS011;62856;51.446;8.360;2022-09-17T04:38:00;29.08;;;8.13;;
74421;SDS011;62856;51.446;8.360;2022-09-17T04:40:25;22.92;;;8.32;;
74421;SDS011;62856;51.446;8.360;2022-09-17T04:42:55;23.88;;;8.05;;
74421;SDS011;62856;51.446;8.360;2022-09-17T04:45:23;23.02;;;6.30;;
74421;SDS011;62856;51.446;8.360;2022-09-17T04:47:50;20.08;;;6.88;;
74421;SDS011;62856;51.446;8.360;2022-09-17T04:50:19;22.98;;;7.20;;
74421;SDS011;62856;51.446;8.360;2022-09-17T04:52:45;19.80;;;6.50;;
74421;SDS011;62856;51.446;8.360;2022-09-17T04:55:11;24.40;;;6.88;;
74421;SDS011;62856;51.446;8.360;2022-09-17T04:57:37;19.42;;;5.88;;
74421;SDS011;62856;51.446;8.360;2022-09-17T05:00:13;20.00;;;5.25;;
74421;SDS011;62856;51.446;8.360;2022-09-17T05:02:39;19.50;;;5.65;;
74421;SDS011;62856;51.446;8.360;2022-09-17T05:05:04;15.18;;;5.30;;
74421;SDS011;62856;51.446;8.360;2022-09-17T05:07:30;20.98;;;6.00;;
74421;SDS011;62856;51.446;8.360;2022-09-17T05:09:58;17.45;;;5.70;;
74421;SDS011;62856;51.446;8.360;2022-09-17T05:12:23;15.68;;;5.10;;
74421;SDS011;62856;51.446;8.360;2022-09-17T05:15:09;21.98;;;4.95;;
74421;SDS011;62856;51.446;8.360;2022-09-17T05:17:36;19.42;;;5.72;;
74421;SDS011;62856;51.446;8.360;2022-09-17T05:20:01;23.95;;;6.18;;
74421;SDS011;62856;51.446;8.360;2022-09-17T05:22:27;19.48;;;4.90;;
74421;SDS011;62856;51.446;8.360;2022-09-17T05:24:52;22.52;;;5.32;;
74421;SDS011;62856;51.446;8.360;2022-09-17T05:27:18;21.67;;;6.10;;
74421;SDS011;62856;51.446;8.360;2022-09-17T05:29:43;11.82;;;5.18;;
74421;SDS011;62856;51.446;8.360;2022-09-17T05:32:09;22.63;;;5.72;;
74421;SDS011;62856;51.446;8.360;2022-09-17T05:34:34;19.17;;;5.07;;
74421;SDS011;62856;51.446;8.360;2022-09-17T05:36:59;16.63;;;5.25;;
74421;SDS011;62856;51.446;8.360;2022-09-17T05:39:25;22.58;;;5.70;;
74421;SDS011;62856;51.446;8.360;2022-09-17T05:41:51;18.45;;;5.82;;
74421;SDS011;62856;51.446;8.360;2022-09-17T05:44:17;17.13;;;4.65;;
74421;SDS011;62856;51.446;8.360;2022-09-17T05:46:43;14.52;;;4.32;;
74421;SDS011;62856;51.446;8.360;2022-09-17T05:49:08;14.57;;;4.10;;
74421;SDS011;62856;51.446;8.360;2022-09-17T05:51:34;14.25;;;4.35;;
74421;SDS011;62856;51.446;8.360;2022-09-17T05:53:59;16.80;;;4.20;;
74421;SDS011;62856;51.446;8.360;2022-09-17T05:56:27;17.07;;;4.30;;
74421;SDS011;62856;51.446;8.360;2022-09-17T05:58:56;11.80;;;4.00;;
74421;SDS011;62856;51.446;8.360;2022-09-17T06:01:21;16.75;;;3.72;;
74421;SDS011;62856;51.446;8.360;2022-09-17T06:03:47;13.13;;;4.25;;
74421;SDS011;62856;51.446;8.360;2022-09-17T06:06:16;16.40;;;3.53;;
74421;SDS011;62856;51.446;8.360;2022-09-17T06:08:41;18.65;;;4.32;;
74421;SDS011;62856;51.446;8.360;2022-09-17T06:11:06;15.18;;;3.78;;
74421;SDS011;62856;51.446;8.360;2022-09-17T06:13:33;14.07;;;3.75;;
74421;SDS011;62856;51.446;8.360;2022-09-17T06:15:59;10.40;;;3.63;;
74421;SDS011;62856;51.446;8.360;2022-09-17T06:18:25;15.13;;;3.13;;
74421;SDS011;62856;51.446;8.360;2022-09-17T06:23:19;15.52;;;3.70;;
74421;SDS011;62856;51.446;8.360;2022-09-17T06:25:58;17.20;;;3.30;;
74421;SDS011;62856;51.446;8.360;2022-09-17T06:28:24;16.05;;;3.42;;
74421;SDS011;62856;51.446;8.360;2022-09-17T06:30:50;15.40;;;3.38;;
74421;SDS011;62856;51.446;8.360;2022-09-17T06:33:20;13.65;;;3.10;;
74421;SDS011;62856;51.446;8.360;2022-09-17T06:35:46;10.50;;;2.78;;
74421;SDS011;62856;51.446;8.360;2022-09-17T06:38:12;16.50;;;3.22;;
74421;SDS011;62856;51.446;8.360;2022-09-17T06:40:37;15.02;;;4.00;;
74421;SDS011;62856;51.446;8.360;2022-09-17T06:43:03;10.77;;;2.85;;
74421;SDS011;62856;51.446;8.360;2022-09-17T06:45:28;14.00;;;3.50;;
74421;SDS011;62856;51.446;8.360;2022-09-17T06:47:54;20.35;;;3.65;;
74421;SDS011;62856;51.446;8.360;2022-09-17T06:50:20;14.63;;;3.28;;
74421;SDS011;62856;51.446;8.360;2022-09-17T06:52:49;10.40;;;2.67;;
74421;SDS011;62856;51.446;8.360;2022-09-17T06:55:20;11.20;;;2.40;;
74421;SDS011;62856;51.446;8.360;2022-09-17T06:57:45;14.82;;;2.97;;
74421;SDS011;62856;51.446;8.360;2022-09-17T07:00:11;16.15;;;2.75;;
74421;SDS011;62856;51.446;8.360;2022-09-17T07:02:38;8.93;;;2.53;;
74421;SDS011;62856;51.446;8.360;2022-09-17T07:05:03;13.95;;;2.70;;
74421;SDS011;62856;51.446;8.360;2022-09-17T07:07:29;11.43;;;1.90;;
74421;SDS011;62856;51.446;8.360;2022-09-17T07:09:54;13.50;;;2.50;;
74421;SDS011;62856;51.446;8.360;2022-09-17T07:12:20;13.68;;;2.60;;
74421;SDS011;62856;51.446;8.360;2022-09-17T07:14:45;12.25;;;2.63;;
74421;SDS011;62856;51.446;8.360;2022-09-17T07:17:14;13.70;;;2.75;;
74421;SDS011;62856;51.446;8.360;2022-09-17T07:19:39;12.52;;;2.85;;
74421;SDS011;62856;51.446;8.360;2022-09-17T07:22:05;16.42;;;3.10;;
74421;SDS011;62856;51.446;8.360;2022-09-17T07:24:31;11.15;;;2.38;;
74421;SDS011;62856;51.446;8.360;2022-09-17T07:26:57;11.27;;;2.63;;
74421;SDS011;62856;51.446;8.360;2022-09-17T07:29:22;9.73;;;2.65;;
74421;SDS011;62856;51.446;8.360;2022-09-17T07:32:00;12.90;;;2.50;;
74421;SDS011;62856;51.446;8.360;2022-09-17T07:34:27;9.65;;;2.10;;
74421;SDS011;62856;51.446;8.360;2022-09-17T07:36:53;13.82;;;2.20;;
74421;SDS011;62856;51.446;8.360;2022-09-17T07:39:18;10.10;;;2.30;;
74421;SDS011;62856;51.446;8.360;2022-09-17T07:41:43;9.38;;;2.50;;
74421;SDS011;62856;51.446;8.360;2022-09-17T07:44:09;12.00;;;1.90;;
74421;SDS011;62856;51.446;8.360;2022-09-17T07:46:34;11.18;;;1.70;;
74421;SDS011;62856;51.446;8.360;2022-09-17T07:49:00;8.93;;;1.90;;
74421;SDS011;62856;51.446;8.360;2022-09-17T07:51:26;9.75;;;1.50;;
74421;SDS011;62856;51.446;8.360;2022-09-17T07:53:55;9.82;;;2.13;;
74421;SDS011;62856;51.446;8.360;2022-09-17T07:58:49;7.25;;;1.40;;
74421;SDS011;62856;51.446;8.360;2022-09-17T08:01:15;9.77;;;1.30;;
74421;SDS011;62856;51.446;8.360;2022-09-17T08:03:42;10.98;;;2.13;;
74421;SDS011;62856;51.446;8.360;2022-09-17T08:06:15;10.68;;;1.40;;
74421;SDS011;62856;51.446;8.360;2022-09-17T08:08:42;8.75;;;1.30;;
74421;SDS011;62856;51.446;8.360;2022-09-17T08:11:09;8.15;;;1.35;;
74421;SDS011;62856;51.446;8.360;2022-09-17T08:13:36;10.23;;;1.80;;
74421;SDS011;62856;51.446;8.360;2022-09-17T08:16:03;8.07;;;1.52;;
74421;SDS011;62856;51.446;8.360;2022-09-17T08:18:40;10.75;;;2.08;;
74421;SDS011;62856;51.446;8.360;2022-09-17T08:21:08;12.90;;;2.58;;
74421;SDS011;62856;51.446;8.360;2022-09-17T08:23:42;16.08;;;2.45;;
74421;SDS011;62856;51.446;8.360;2022-09-17T08:26:12;6.60;;;1.30;;
74421;SDS011;62856;51.446;8.360;2022-09-17T08:28:39;10.90;;;1.52;;
74421;SDS011;62856;51.446;8.360;2022-09-17T08:31:16;9.10;;;1.80;;
74421;SDS011;62856;51.446;8.360;2022-09-17T08:33:42;9.35;;;1.50;;
74421;SDS011;62856;51.446;8.360;2022-09-17T08:36:09;12.77;;;1.90;;
74421;SDS011;62856;51.446;8.360;2022-09-17T08:38:39;12.85;;;1.95;;
74421;SDS011;62856;51.446;8.360;2022-09-17T08:43:34;7.40;;;2.13;;
74421;SDS011;62856;51.446;8.360;2022-09-17T08:48:38;11.02;;;1.77;;
74421;SDS011;62856;51.446;8.360;2022-09-17T08:51:12;8.57;;;1.73;;
74421;SDS011;62856;51.446;8.360;2022-09-17T08:53:55;8.98;;;1.80;;
74421;SDS011;62856;51.446;8.360;2022-09-17T08:56:44;11.63;;;1.52;;
74421;SDS011;62856;51.446;8.360;2022-09-17T08:59:21;8.65;;;1.90;;
74421;SDS011;62856;51.446;8.360;2022-09-17T09:07:14;10.65;;;2.00;;
74421;SDS011;62856;51.446;8.360;2022-09-17T09:09:46;10.07;;;2.08;;
74421;SDS011;62856;51.446;8.360;2022-09-17T09:12:17;9.85;;;2.10;;
74421;SDS011;62856;51.446;8.360;2022-09-17T09:17:14;10.23;;;2.30;;
74421;SDS011;62856;51.446;8.360;2022-09-17T09:22:23;11.48;;;1.75;;
74421;SDS011;62856;51.446;8.360;2022-09-17T09:30:45;6.25;;;1.10;;
74421;SDS011;62856;51.446;8.360;2022-09-17T09:33:16;9.20;;;1.60;;
74421;SDS011;62856;51.446;8.360;2022-09-17T09:35:50;11.85;;;1.88;;
74421;SDS011;62856;51.446;8.360;2022-09-17T09:41:12;11.13;;;2.47;;
74421;SDS011;62856;51.446;8.360;2022-09-17T09:44:28;9.55;;;1.50;;
74421;SDS011;62856;51.446;8.360;2022-09-17T09:52:55;8.75;;;1.73;;
74421;SDS011;62856;51.446;8.360;2022-09-17T09:58:02;6.72;;;1.25;;
74421;SDS011;62856;51.446;8.360;2022-09-17T10:00:35;167.60;;;17.23;;
74421;SDS011;62856;51.446;8.360;2022-09-17T10:05:55;8.85;;;2.25;;
74421;SDS011;62856;51.446;8.360;2022-09-17T10:08:26;9.52;;;1.20;;
74421;SDS011;62856;51.446;8.360;2022-09-17T10:13:24;9.35;;;1.27;;
74421;SDS011;62856;51.446;8.360;2022-09-17T10:15:56;11.38;;;1.90;;
74421;SDS011;62856;51.446;8.360;2022-09-17T10:18:22;9.10;;;1.50;;
74421;SDS011;62856;51.446;8.360;2022-09-17T10:20:54;7.03;;;1.05;;
74421;SDS011;62856;51.446;8.360;2022-09-17T10:23:31;8.48;;;1.40;;
74421;SDS011;62856;51.446;8.360;2022-09-17T10:26:02;7.05;;;1.42;;
74421;SDS011;62856;51.446;8.360;2022-09-17T10:28:44;9.80;;;1.58;;
74421;SDS011;62856;51.446;8.360;2022-09-17T10:34:30;6.28;;;1.00;;
74421;SDS011;62856;51.446;8.360;2022-09-17T10:37:53;6.93;;;0.88;;
74421;SDS011;62856;51.446;8.360;2022-09-17T10:40:10;6.28;;;1.25;;
74421;SDS011;62856;51.446;8.360;2022-09-17T10:42:47;5.22;;;0.98;;
74421;SDS011;62856;51.446;8.360;2022-09-17T10:45:24;5.95;;;1.10;;
74421;SDS011;62856;51.446;8.360;2022-09-17T10:47:57;3.88;;;0.90;;
74421;SDS011;62856;51.446;8.360;2022-09-17T10:50:29;7.20;;;1.00;;
74421;SDS011;62856;51.446;8.360;2022-09-17T10:52:57;7.78;;;1.40;;
74421;SDS011;62856;51.446;8.360;2022-09-17T10:55:45;6.43;;;1.27;;
74421;SDS011;62856;51.446;8.360;2022-09-17T11:08:33;6.10;;;0.95;;
74421;SDS011;62856;51.446;8.360;2022-09-17T11:14:40;8.63;;;1.67;;
74421;SDS011;62856;51.446;8.360;2022-09-17T11:21:11;8.65;;;2.38;;
74421;SDS011;62856;51.446;8.360;2022-09-17T11:32:21;6.55;;;1.20;;
74421;SDS011;62856;51.446;8.360;2022-09-17T11:34:51;8.70;;;1.70;;
74421;SDS011;62856;51.446;8.360;2022-09-17T11:37:21;4.45;;;0.93;;
74421;SDS011;62856;51.446;8.360;2022-09-17T11:42:36;5.18;;;1.23;;
74421;SDS011;62856;51.446;8.360;2022-09-17T11:47:43;8.38;;;1.83;;
74421;SDS011;62856;51.446;8.360;2022-09-17T11:50:18;7.43;;;1.42;;
74421;SDS011;62856;51.446;8.360;2022-09-17T12:01:48;4.88;;;1.58;;
74421;SDS011;62856;51.446;8.360;2022-09-17T12:07:27;2.38;;;0.82;;
74421;SDS011;62856;51.446;8.360;2022-09-17T12:12:55;6.40;;;0.73;;
74421;SDS011;62856;51.446;8.360;2022-09-17T12:15:33;3.58;;;0.77;;
74421;SDS011;62856;51.446;8.360;2022-09-17T12:20:51;4.05;;;0.95;;
74421;SDS011;62856;51.446;8.360;2022-09-17T12:23:25;6.32;;;1.30;;
74421;SDS011;62856;51.446;8.360;2022-09-17T12:29:28;128.23;;;12.05;;
74421;SDS011;62856;51.446;8.360;2022-09-17T12:57:09;3.17;;;0.60;;
74421;SDS011;62856;51.446;8.360;2022-09-17T13:11:21;3.72;;;0.90;;
74421;SDS011;62856;51.446;8.360;2022-09-17T13:14:00;4.95;;;1.20;;
74421;SDS011;62856;51.446;8.360;2022-09-17T13:16:53;3.95;;;1.13;;
74421;SDS011;62856;51.446;8.360;2022-09-17T13:19:42;4.45;;;0.77;;
74421;SDS011;62856;51.446;8.360;2022-09-17T13:22:27;2.50;;;0.75;;
74421;SDS011;62856;51.446;8.360;2022-09-17T13:25:02;4.57;;;0.95;;
74421;SDS011;62856;51.446;8.360;2022-09-17T13:27:32;2.90;;;0.68;;
74421;SDS011;62856;51.446;8.360;2022-09-17T13:30:01;2.35;;;0.52;;
74421;SDS011;62856;51.446;8.360;2022-09-17T13:37:30;3.92;;;1.13;;
74421;SDS011;62856;51.446;8.360;2022-09-17T13:39:59;1.80;;;0.63;;
74421;SDS011;62856;51.446;8.360;2022-09-17T13:42:30;2.00;;;0.50;;
74421;SDS011;62856;51.446;8.360;2022-09-17T13:45:12;5.63;;;0.75;;
74421;SDS011;62856;51.446;8.360;2022-09-17T13:47:55;5.95;;;0.60;;
74421;SDS011;62856;51.446;8.360;2022-09-17T13:56:36;13.00;;;3.95;;
74421;SDS011;62856;51.446;8.360;2022-09-17T14:05:38;2.70;;;0.80;;
74421;SDS011;62856;51.446;8.360;2022-09-17T14:08:05;10.68;;;2.55;;
74421;SDS011;62856;51.446;8.360;2022-09-17T14:10:39;6.00;;;1.02;;
74421;SDS011;62856;51.446;8.360;2022-09-17T14:16:22;10.07;;;1.65;;
74421;SDS011;62856;51.446;8.360;2022-09-17T14:19:16;6.18;;;1.40;;
74421;SDS011;62856;51.446;8.360;2022-09-17T14:27:14;5.47;;;1.48;;
74421;SDS011;62856;51.446;8.360;2022-09-17T14:30:04;5.82;;;1.05;;
74421;SDS011;62856;51.446;8.360;2022-09-17T14:35:13;4.20;;;1.63;;
74421;SDS011;62856;51.446;8.360;2022-09-17T14:37:53;7.03;;;1.40;;
74421;SDS011;62856;51.446;8.360;2022-09-17T14:40:28;5.28;;;1.00;;
74421;SDS011;62856;51.446;8.360;2022-09-17T14:43:18;4.10;;;1.10;;
74421;SDS011;62856;51.446;8.360;2022-09-17T14:46:03;9.05;;;1.30;;
74421;SDS011;62856;51.446;8.360;2022-09-17T14:48:43;3.10;;;0.82;;
74421;SDS011;62856;51.446;8.360;2022-09-17T14:51:38;6.10;;;1.33;;
74421;SDS011;62856;51.446;8.360;2022-09-17T14:54:05;5.07;;;1.00;;
74421;SDS011;62856;51.446;8.360;2022-09-17T14:59:28;5.97;;;0.90;;
74421;SDS011;62856;51.446;8.360;2022-09-17T15:02:19;7.03;;;1.20;;
74421;SDS011;62856;51.446;8.360;2022-09-17T15:07:26;3.95;;;0.80;;
74421;SDS011;62856;51.446;8.360;2022-09-17T15:09:51;6.10;;;1.13;;
74421;SDS011;62856;51.446;8.360;2022-09-17T15:12:20;6.00;;;1.30;;
74421;SDS011;62856;51.446;8.360;2022-09-17T15:14:52;5.22;;;1.20;;
74421;SDS011;62856;51.446;8.360;2022-09-17T15:17:21;7.15;;;1.20;;
74421;SDS011;62856;51.446;8.360;2022-09-17T15:22:36;4.93;;;1.17;;
74421;SDS011;62856;51.446;8.360;2022-09-17T15:25:21;7.15;;;1.10;;
74421;SDS011;62856;51.446;8.360;2022-09-17T15:27:52;3.50;;;0.98;;
74421;SDS011;62856;51.446;8.360;2022-09-17T15:30:26;7.78;;;1.02;;
74421;SDS011;62856;51.446;8.360;2022-09-17T15:32:52;3.95;;;0.90;;
74421;SDS011;62856;51.446;8.360;2022-09-17T15:37:57;5.40;;;1.00;;
74421;SDS011;62856;51.446;8.360;2022-09-17T15:43:15;4.50;;;1.13;;
74421;SDS011;62856;51.446;8.360;2022-09-17T15:46:13;6.40;;;1.83;;
74421;SDS011;62856;51.446;8.360;2022-09-17T15:48:47;4.15;;;1.00;;
74421;SDS011;62856;51.446;8.360;2022-09-17T15:51:23;5.10;;;1.05;;
74421;SDS011;62856;51.446;8.360;2022-09-17T15:53:56;5.75;;;1.20;;
74421;SDS011;62856;51.446;8.360;2022-09-17T15:56:27;4.10;;;0.90;;
74421;SDS011;62856;51.446;8.360;2022-09-17T15:58:57;4.18;;;0.90;;
74421;SDS011;62856;51.446;8.360;2022-09-17T16:04:17;6.97;;;1.33;;
74421;SDS011;62856;51.446;8.360;2022-09-17T16:09:43;4.65;;;0.90;;
74421;SDS011;62856;51.446;8.360;2022-09-17T16:12:20;3.63;;;1.10;;
74421;SDS011;62856;51.446;8.360;2022-09-17T16:14:49;4.68;;;0.68;;
74421;SDS011;62856;51.446;8.360;2022-09-17T16:19:57;3.55;;;0.73;;
74421;SDS011;62856;51.446;8.360;2022-09-17T16:22:44;6.28;;;1.10;;
74421;SDS011;62856;51.446;8.360;2022-09-17T16:27:59;16.60;;;3.05;;
74421;SDS011;62856;51.446;8.360;2022-09-17T16:30:30;7.82;;;1.35;;
74421;SDS011;62856;51.446;8.360;2022-09-17T16:32:56;6.28;;;0.93;;
74421;SDS011;62856;51.446;8.360;2022-09-17T16:35:23;7.32;;;1.05;;
74421;SDS011;62856;51.446;8.360;2022-09-17T16:37:54;6.03;;;1.42;;
74421;SDS011;62856;51.446;8.360;2022-09-17T16:40:23;6.88;;;1.05;;
74421;SDS011;62856;51.446;8.360;2022-09-17T16:45:23;5.25;;;0.95;;
74421;SDS011;62856;51.446;8.360;2022-09-17T16:47:52;8.27;;;1.55;;
74421;SDS011;62856;51.446;8.360;2022-09-17T16:50:17;6.80;;;1.80;;
74421;SDS011;62856;51.446;8.360;2022-09-17T16:52:43;6.55;;;0.88;;
74421;SDS011;62856;51.446;8.360;2022-09-17T16:55:13;10.77;;;2.55;;
74421;SDS011;62856;51.446;8.360;2022-09-17T16:58:04;8.50;;;1.88;;
74421;SDS011;62856;51.446;8.360;2022-09-17T17:00:29;4.18;;;0.95;;
74421;SDS011;62856;51.446;8.360;2022-09-17T17:02:58;6.38;;;1.02;;
74421;SDS011;62856;51.446;8.360;2022-09-17T17:05:24;10.43;;;2.13;;
74421;SDS011;62856;51.446;8.360;2022-09-17T17:07:59;5.88;;;0.82;;
74421;SDS011;62856;51.446;8.360;2022-09-17T17:10:31;5.78;;;1.33;;
74421;SDS011;62856;51.446;8.360;2022-09-17T17:12:57;5.50;;;0.85;;
74421;SDS011;62856;51.446;8.360;2022-09-17T17:15:24;4.93;;;1.10;;
74421;SDS011;62856;51.446;8.360;2022-09-17T17:17:50;4.88;;;1.00;;
74421;SDS011;62856;51.446;8.360;2022-09-17T17:20:15;4.13;;;0.80;;
74421;SDS011;62856;51.446;8.360;2022-09-17T17:22:42;6.55;;;1.65;;
74421;SDS011;62856;51.446;8.360;2022-09-17T17:25:08;4.45;;;1.00;;
74421;SDS011;62856;51.446;8.360;2022-09-17T17:27:35;6.50;;;1.77;;
74421;SDS011;62856;51.446;8.360;2022-09-17T17:30:02;6.20;;;1.42;;
74421;SDS011;62856;51.446;8.360;2022-09-17T17:32:31;5.45;;;1.08;;
74421;SDS011;62856;51.446;8.360;2022-09-17T17:34:57;6.47;;;1.30;;
74421;SDS011;62856;51.446;8.360;2022-09-17T17:37:22;8.32;;;1.48;;
74421;SDS011;62856;51.446;8.360;2022-09-17T17:39:50;6.35;;;1.20;;
74421;SDS011;62856;51.446;8.360;2022-09-17T17:42:18;6.40;;;1.10;;
74421;SDS011;62856;51.446;8.360;2022-09-17T17:44:47;7.18;;;1.13;;
74421;SDS011;62856;51.446;8.360;2022-09-17T17:47:13;6.38;;;0.95;;
74421;SDS011;62856;51.446;8.360;2022-09-17T17:49:40;4.97;;;0.95;;
74421;SDS011;62856;51.446;8.360;2022-09-17T17:54:48;7.13;;;1.30;;
74421;SDS011;62856;51.446;8.360;2022-09-17T17:57:16;7.82;;;1.08;;
74421;SDS011;62856;51.446;8.360;2022-09-17T17:59:41;6.13;;;1.30;;
74421;SDS011;62856;51.446;8.360;2022-09-17T18:02:10;5.53;;;1.48;;
74421;SDS011;62856;51.446;8.360;2022-09-17T18:04:39;6.28;;;1.00;;
74421;SDS011;62856;51.446;8.360;2022-09-17T18:07:04;4.28;;;0.82;;
74421;SDS011;62856;51.446;8.360;2022-09-17T18:09:31;4.68;;;0.95;;
74421;SDS011;62856;51.446;8.360;2022-09-17T18:11:58;3.95;;;0.90;;
74421;SDS011;62856;51.446;8.360;2022-09-17T18:14:23;6.30;;;1.10;;
74421;SDS011;62856;51.446;8.360;2022-09-17T18:16:52;4.82;;;0.93;;
74421;SDS011;62856;51.446;8.360;2022-09-17T18:19:26;3.83;;;0.85;;
74421;SDS011;62856;51.446;8.360;2022-09-17T18:21:55;8.57;;;1.42;;
74421;SDS011;62856;51.446;8.360;2022-09-17T18:24:20;8.48;;;2.15;;
74421;SDS011;62856;51.446;8.360;2022-09-17T18:26:46;5.25;;;1.10;;
74421;SDS011;62856;51.446;8.360;2022-09-17T18:29:24;7.43;;;0.93;;
74421;SDS011;62856;51.446;8.360;2022-09-17T18:31:49;6.88;;;1.25;;
74421;SDS011;62856;51.446;8.360;2022-09-17T18:34:23;5.32;;;0.90;;
74421;SDS011;62856;51.446;8.360;2022-09-17T18:37:10;8.05;;;1.45;;
74421;SDS011;62856;51.446;8.360;2022-09-17T18:39:37;6.32;;;0.82;;
74421;SDS011;62856;51.446;8.360;2022-09-17T18:42:10;5.68;;;1.30;;
74421;SDS011;62856;51.446;8.360;2022-09-17T18:44:36;7.45;;;1.42;;
74421;SDS011;62856;51.446;8.360;2022-09-17T18:47:04;7.63;;;1.38;;
74421;SDS011;62856;51.446;8.360;2022-09-17T18:49:29;7.53;;;1.00;;
74421;SDS011;62856;51.446;8.360;2022-09-17T18:52:04;6.05;;;0.90;;
74421;SDS011;62856;51.446;8.360;2022-09-17T18:54:33;7.38;;;1.40;;
74421;SDS011;62856;51.446;8.360;2022-09-17T18:57:01;6.32;;;1.10;;
74421;SDS011;62856;51.446;8.360;2022-09-17T18:59:37;8.88;;;1.27;;
74421;SDS011;62856;51.446;8.360;2022-09-17T19:02:07;6.78;;;0.90;;
74421;SDS011;62856;51.446;8.360;2022-09-17T19:07:26;5.75;;;0.70;;
74421;SDS011;62856;51.446;8.360;2022-09-17T19:09:55;9.05;;;1.50;;
74421;SDS011;62856;51.446;8.360;2022-09-17T19:12:21;5.57;;;1.10;;
74421;SDS011;62856;51.446;8.360;2022-09-17T19:14:47;6.43;;;1.30;;